Time;durP1;ratioP1;P1;durP2;ratioP2;P2;SDS_P1;SDS_P2;PMS_P1;PMS_P2;Temp;Humidity;BMP_temperature;BMP_pressure;BME280_temperature;BME280_humidity;BME280_pressure;Samples;Min_cycle;Max_cycle;Signal;HPM_P1;HPM_P2
2022/04/26 03:36:38;;;;;;;;;9.00;9.00;15.30;62.90;;;;;;4681554;30;8947;-58
2022/04/26 03:39:05;;;;;;;;;8.00;8.00;15.50;62.30;;;;;;4674382;30;9019;-58
2022/04/26 03:41:31;;;;;;;;;8.00;8.00;15.70;61.30;;;;;;4664534;30;8845;-58
2022/04/26 03:43:56;;;;;;;;;8.33;8.33;15.50;62.40;;;;;;4664556;30;8819;-58
2022/04/26 03:46:22;;;;;;;;;9.00;9.00;15.70;61.50;;;;;;4664435;30;9467;-58
2022/04/26 03:48:48;;;;;;;;;9.67;9.67;15.80;60.70;;;;;;4664492;30;8855;-58
2022/04/26 03:51:14;;;;;;;;;10.33;10.33;15.90;60.20;;;;;;4666995;30;8893;-58
2022/04/26 03:53:40;;;;;;;;;14.33;13.67;16.00;59.40;;;;;;4667762;30;8874;-58
2022/04/26 03:56:05;;;;;;;;;11.00;10.00;15.80;61.40;;;;;;4653315;30;8898;-59
2022/04/26 03:58:33;;;;;;;;;12.67;12.67;15.80;60.60;;;;;;4682171;30;8887;-58
2022/04/26 04:00:59;;;;;;;;;11.67;11.00;15.80;60.50;;;;;;4684743;30;8849;-61
2022/04/26 04:03:25;;;;;;;;;11.33;11.33;15.70;60.60;;;;;;4684940;30;8915;-59
2022/04/26 04:05:50;;;;;;;;;12.67;12.00;15.80;60.10;;;;;;4684689;30;8849;-58
2022/04/26 04:08:16;;;;;;;;;11.00;10.00;15.90;59.60;;;;;;4686367;30;8824;-61
2022/04/26 04:10:42;;;;;;;;;13.00;12.00;15.70;60.90;;;;;;4689745;30;8864;-58
2022/04/26 04:13:07;;;;;;;;;11.00;11.00;15.60;61.50;;;;;;4703878;30;8861;-59
2022/04/26 04:15:33;;;;;;;;;11.33;11.00;15.60;61.20;;;;;;4703775;30;8840;-58
2022/04/26 04:17:59;;;;;;;;;10.67;10.67;15.20;62.70;;;;;;4704012;30;8899;-58
2022/04/26 04:20:25;;;;;;;;;9.67;9.00;15.30;63.30;;;;;;4703697;30;8826;-58
2022/04/26 04:22:53;;;;;;;;;8.33;8.33;15.70;61.50;;;;;;4703686;30;8916;-61
2022/04/26 04:25:20;;;;;;;;;11.33;11.33;15.60;61.90;;;;;;4703792;30;8869;-58
2022/04/26 04:27:47;;;;;;;;;9.00;9.00;15.90;60.90;;;;;;4703690;30;8856;-60
2022/04/26 04:30:12;;;;;;;;;10.33;10.33;15.90;60.30;;;;;;4703543;30;8825;-61
2022/04/26 04:32:38;;;;;;;;;7.33;7.00;16.00;60.10;;;;;;4703423;30;8881;-60
2022/04/26 04:35:05;;;;;;;;;12.00;10.67;15.70;61.30;;;;;;4703680;30;8814;-60
2022/04/26 04:37:31;;;;;;;;;11.00;11.00;16.00;60.50;;;;;;4703402;30;9553;-60
2022/04/26 04:39:57;;;;;;;;;13.00;13.00;15.60;61.70;;;;;;4702801;30;8845;-60
2022/04/26 04:42:22;;;;;;;;;12.00;11.00;15.50;62.50;;;;;;4702943;30;8845;-60
2022/04/26 04:44:48;;;;;;;;;9.33;9.33;15.60;62.10;;;;;;4703364;30;8938;-59
2022/04/26 04:47:14;;;;;;;;;10.00;10.00;15.40;62.80;;;;;;4703319;30;8984;-60
2022/04/26 04:49:40;;;;;;;;;8.00;8.00;15.50;62.70;;;;;;4703507;30;8858;-60
2022/04/26 04:52:05;;;;;;;;;12.00;11.00;15.50;63.10;;;;;;4702881;30;8868;-59
2022/04/26 04:54:31;;;;;;;;;9.00;9.00;15.40;63.30;;;;;;4702956;30;8911;-62
2022/04/26 04:56:57;;;;;;;;;9.00;9.00;15.60;62.60;;;;;;4703686;30;8891;-60
2022/04/26 04:59:23;;;;;;;;;10.00;9.33;15.40;63.80;;;;;;4703036;30;8829;-61
2022/04/26 05:01:48;;;;;;;;;11.00;11.00;15.40;64.30;;;;;;4702072;30;8857;-60
2022/04/26 05:04:14;;;;;;;;;7.33;7.33;15.50;63.80;;;;;;4702252;30;8833;-61
2022/04/26 05:06:40;;;;;;;;;10.33;10.33;15.50;64.10;;;;;;4702157;30;8857;-60
2022/04/26 05:09:05;;;;;;;;;9.33;8.67;15.20;65.30;;;;;;4703097;30;8852;-59
2022/04/26 05:11:31;;;;;;;;;9.00;9.00;15.00;67.20;;;;;;4702817;30;9514;-60
2022/04/26 05:13:57;;;;;;;;;11.33;11.00;14.80;69.40;;;;;;4702680;30;8813;-60
2022/04/26 05:16:23;;;;;;;;;9.00;9.00;14.80;69.80;;;;;;4702782;30;8923;-60
2022/04/26 05:18:48;;;;;;;;;11.33;11.33;15.50;67.70;;;;;;4702637;30;8837;-60
2022/04/26 05:21:14;;;;;;;;;11.33;11.33;15.20;68.10;;;;;;4702892;30;8856;-60
2022/04/26 05:26:26;;;;;;;;;12.33;12.33;15.10;68.70;;;;;;4702623;30;8861;-61
2022/04/26 05:28:51;;;;;;;;;11.00;10.33;15.20;69.30;;;;;;4702625;30;8829;-61
2022/04/26 05:31:17;;;;;;;;;13.00;10.67;14.90;70.60;;;;;;4702660;30;8869;-60
2022/04/26 05:33:43;;;;;;;;;12.00;12.00;15.10;70.40;;;;;;4702592;30;8840;-61
2022/04/26 05:36:09;;;;;;;;;12.33;12.33;15.30;69.50;;;;;;4701504;30;8869;-60
2022/04/26 05:38:36;;;;;;;;;10.67;10.67;15.30;69.70;;;;;;4702684;30;9558;-60
2022/04/26 05:41:02;;;;;;;;;14.00;14.00;15.60;68.40;;;;;;4702379;30;8917;-59
2022/04/26 05:43:28;;;;;;;;;13.00;11.33;15.60;68.30;;;;;;4702575;30;8822;-59
2022/04/26 05:45:53;;;;;;;;;14.00;13.33;15.40;70.30;;;;;;4702264;30;8841;-60
2022/04/26 05:48:19;;;;;;;;;13.00;12.00;15.10;71.70;;;;;;4702535;30;8829;-60
2022/04/26 05:50:45;;;;;;;;;15.00;15.00;14.90;73.60;;;;;;4702193;30;8825;-60
2022/04/26 05:53:11;;;;;;;;;13.33;13.33;14.50;76.40;;;;;;4702300;30;8821;-59
2022/04/26 05:55:38;;;;;;;;;13.00;12.00;14.70;76.40;;;;;;4702034;30;8869;-60
2022/04/26 05:58:04;;;;;;;;;13.33;13.00;14.80;75.20;;;;;;4702059;30;8833;-61
2022/04/26 06:00:31;;;;;;;;;11.67;11.00;15.20;73.40;;;;;;4702225;30;8840;-60
2022/04/26 06:02:56;;;;;;;;;14.00;14.00;15.50;71.30;;;;;;4701992;30;8825;-60
2022/04/26 06:05:22;;;;;;;;;12.67;12.67;15.50;70.70;;;;;;4702189;30;8919;-60
2022/04/26 06:07:48;;;;;;;;;5.00;5.00;15.00;74.20;;;;;;4701907;30;8842;-60
2022/04/26 06:10:14;;;;;;;;;15.00;15.00;14.90;75.50;;;;;;4701870;30;8893;-60
2022/04/26 06:12:44;;;;;;;;;15.00;15.00;15.00;75.60;;;;;;4701252;30;9006;-59
2022/04/26 06:15:10;;;;;;;;;14.67;14.67;15.00;76.30;;;;;;4701832;30;8836;-60
2022/04/26 06:17:35;;;;;;;;;16.33;14.67;14.90;76.80;;;;;;4701773;30;8817;-59
2022/04/26 06:20:01;;;;;;;;;16.67;16.67;15.20;75.10;;;;;;4701977;30;8852;-60
2022/04/26 06:22:27;;;;;;;;;15.00;15.00;15.20;74.80;;;;;;4701669;30;9464;-59
2022/04/26 06:24:54;;;;;;;;;16.33;15.67;15.00;77.70;;;;;;4701789;30;8853;-59
2022/04/26 06:27:20;;;;;;;;;16.00;16.00;15.30;76.70;;;;;;4701812;30;8813;-62
2022/04/26 06:29:46;;;;;;;;;16.67;15.67;15.50;74.80;;;;;;4701540;30;8837;-60
2022/04/26 06:32:12;;;;;;;;;16.00;16.00;15.70;73.90;;;;;;4701716;30;8854;-59
2022/04/26 06:34:38;;;;;;;;;17.00;16.00;15.90;73.10;;;;;;4700556;30;8850;-58
2022/04/26 06:37:03;;;;;;;;;16.67;15.33;16.00;72.20;;;;;;4714899;30;8878;-58
2022/04/26 06:39:29;;;;;;;;;13.67;13.67;15.90;72.80;;;;;;4701676;30;8806;-58
2022/04/26 06:41:55;;;;;;;;;17.00;17.00;16.00;71.70;;;;;;4701524;30;8895;-59
2022/04/26 06:44:21;;;;;;;;;14.00;14.00;16.00;72.70;;;;;;4701683;30;8818;-59
2022/04/26 06:46:46;;;;;;;;;15.67;15.33;16.00;71.50;;;;;;4701572;30;9527;-59
2022/04/26 06:49:12;;;;;;;;;15.67;15.00;16.10;72.40;;;;;;4700131;30;8826;-60
2022/04/26 06:51:42;;;;;;;;;15.67;15.00;16.30;71.70;;;;;;4701193;30;8869;-60
2022/04/26 06:54:08;;;;;;;;;16.00;16.00;16.90;69.70;;;;;;4714817;30;8967;-60
2022/04/26 06:56:34;;;;;;;;;17.00;16.00;17.20;67.90;;;;;;4701203;30;8917;-60
2022/04/26 06:58:59;;;;;;;;;17.33;17.33;17.40;65.00;;;;;;4701468;30;8813;-60
2022/04/26 07:01:25;;;;;;;;;17.67;15.33;17.00;67.50;;;;;;4701412;30;9496;-60
2022/04/26 07:03:51;;;;;;;;;17.00;15.00;17.00;68.50;;;;;;4701162;30;8845;-60
2022/04/26 07:06:17;;;;;;;;;16.00;14.67;16.70;69.80;;;;;;4701111;30;8825;-61
2022/04/26 07:08:43;;;;;;;;;16.00;15.00;16.90;69.50;;;;;;4701326;30;8932;-60
2022/04/26 07:11:08;;;;;;;;;16.67;16.33;17.40;66.70;;;;;;4700826;30;8889;-60
2022/04/26 07:13:34;;;;;;;;;15.00;15.00;17.40;66.20;;;;;;4701056;30;8822;-60
2022/04/26 07:16:00;;;;;;;;;16.00;14.67;17.30;65.90;;;;;;4701244;30;8911;-61
2022/04/26 07:18:27;;;;;;;;;17.33;17.33;17.40;65.40;;;;;;4701246;30;8821;-60
2022/04/26 07:20:52;;;;;;;;;14.67;14.67;17.10;66.50;;;;;;4701193;30;8869;-60
2022/04/26 07:23:18;;;;;;;;;13.00;13.00;17.30;66.70;;;;;;4700879;30;8845;-60
2022/04/26 07:25:44;;;;;;;;;14.67;14.67;17.50;66.00;;;;;;4704855;30;8862;-60
2022/04/26 07:28:10;;;;;;;;;14.00;14.00;17.40;66.20;;;;;;4704577;30;8833;-60
2022/04/26 07:30:36;;;;;;;;;16.00;13.67;17.50;65.80;;;;;;4704726;30;8924;-61
2022/04/26 07:35:47;;;;;;;;;15.00;15.00;17.90;64.30;;;;;;4704462;30;8805;-60
2022/04/26 07:38:13;;;;;;;;;16.00;16.00;17.70;65.10;;;;;;4704627;30;8844;-60
2022/04/26 07:40:39;;;;;;;;;14.00;14.00;17.20;67.20;;;;;;4704311;30;8849;-60
2022/04/26 07:43:05;;;;;;;;;17.33;17.33;17.70;65.50;;;;;;4704585;30;8922;-60
2022/04/26 07:45:31;;;;;;;;;13.33;13.33;17.90;65.50;;;;;;4704240;30;8830;-61
2022/04/26 07:47:59;;;;;;;;;14.00;13.67;18.00;63.30;;;;;;4704373;30;8829;-61
2022/04/26 07:50:25;;;;;;;;;14.33;14.33;18.10;63.70;;;;;;4704285;30;8809;-61
2022/04/26 07:52:51;;;;;;;;;16.67;15.00;18.40;62.30;;;;;;4704404;30;9632;-61
2022/04/26 07:55:16;;;;;;;;;16.33;15.00;18.60;60.90;;;;;;4704102;30;8877;-61
2022/04/26 07:57:42;;;;;;;;;16.00;15.33;18.30;61.00;;;;;;4704086;30;8822;-61
2022/04/26 08:00:08;;;;;;;;;11.67;11.67;18.00;63.10;;;;;;4704225;30;8864;-60
2022/04/26 08:02:35;;;;;;;;;13.33;11.00;18.10;62.70;;;;;;4704288;30;8892;-61
2022/04/26 08:05:01;;;;;;;;;11.33;11.33;18.30;62.50;;;;;;4704344;30;8817;-62
2022/04/26 08:07:31;;;;;;;;;14.00;12.33;19.00;59.70;;;;;;4704113;30;8841;-61
2022/04/26 08:09:57;;;;;;;;;13.00;13.00;19.20;58.60;;;;;;4703951;30;8893;-61
2022/04/26 08:12:23;;;;;;;;;15.67;14.00;18.70;60.00;;;;;;4704096;30;9611;-61
2022/04/26 08:14:49;;;;;;;;;15.33;13.67;19.00;59.90;;;;;;4703826;30;8936;-60
2022/04/26 08:17:18;;;;;;;;;11.67;11.33;19.00;58.90;;;;;;4703817;30;8833;-61
2022/04/26 08:19:43;;;;;;;;;15.33;13.33;19.50;57.40;;;;;;4703993;30;8829;-61
2022/04/26 08:22:09;;;;;;;;;11.00;9.33;19.20;57.20;;;;;;4703982;30;8830;-61
2022/04/26 08:27:22;;;;;;;;;11.67;11.67;19.90;55.50;;;;;;4703778;30;8794;-62
2022/04/26 08:29:49;;;;;;;;;13.00;11.33;19.60;54.40;;;;;;4703586;30;8842;-61
2022/04/26 08:32:15;;;;;;;;;11.00;11.00;19.30;57.00;;;;;;4703716;30;9550;-61
2022/04/26 08:34:41;;;;;;;;;10.67;10.67;19.40;56.60;;;;;;4703512;30;8813;-61
2022/04/26 08:37:08;;;;;;;;;11.00;11.00;19.50;56.50;;;;;;4702937;30;8814;-61
2022/04/26 08:39:34;;;;;;;;;13.00;13.00;19.70;54.60;;;;;;4703447;30;8844;-61
2022/04/26 08:42:02;;;;;;;;;14.67;11.67;19.60;55.20;;;;;;4703340;30;8845;-61
2022/04/26 08:44:29;;;;;;;;;9.00;9.00;20.20;53.60;;;;;;4703500;30;8810;-61
2022/04/26 08:52:26;;;;;;;;;10.33;10.33;19.70;53.00;;;;;;4703298;30;8841;-61
2022/04/26 08:54:52;;;;;;;;;8.00;8.00;19.70;52.40;;;;;;4702996;30;8913;-61
2022/04/26 08:57:18;;;;;;;;;6.00;6.00;19.80;50.60;;;;;;4703387;30;11691;-61
2022/04/26 08:59:53;;;;;;;;;7.33;7.33;19.30;50.10;;;;;;4703069;30;11689;-60
2022/04/26 09:02:23;;;;;;;;;5.00;5.00;19.10;50.70;;;;;;4703304;30;11712;-61
2022/04/26 09:04:59;;;;;;;;;17.00;17.00;18.90;50.90;;;;;;4703232;30;11788;-61
2022/04/26 09:07:33;;;;;;;;;10.33;8.00;19.20;51.50;;;;;;4703262;30;9481;-62
2022/04/26 09:10:06;;;;;;;;;8.00;8.00;19.70;51.10;;;;;;4703019;30;8936;-62
2022/04/26 09:12:32;;;;;;;;;8.33;8.33;20.10;51.40;;;;;;4702837;30;8849;-62
2022/04/26 09:15:13;;;;;;;;;9.00;9.00;20.50;51.20;;;;;;4702875;30;11671;-62
2022/04/26 09:17:38;;;;;;;;;6.67;6.67;20.60;51.00;;;;;;4702896;30;8845;-62
2022/04/26 09:20:08;;;;;;;;;7.00;7.00;20.80;50.70;;;;;;4702977;30;11671;-63
2022/04/26 09:22:34;;;;;;;;;7.33;7.33;20.80;51.50;;;;;;4702722;30;8861;-62
2022/04/26 09:25:05;;;;;;;;;6.00;6.00;21.30;51.60;;;;;;4702613;30;11785;-62
2022/04/26 09:27:38;;;;;;;;;5.33;5.33;21.00;48.00;;;;;;4702863;30;9492;-62
2022/04/26 09:30:12;;;;;;;;;6.00;6.00;20.30;48.60;;;;;;4702798;30;11726;-62
2022/04/26 09:32:50;;;;;;;;;8.67;6.00;20.60;49.10;;;;;;4702680;30;11727;-62
2022/04/26 09:35:22;;;;;;;;;4.00;4.00;20.50;49.20;;;;;;4702716;30;11747;-62
2022/04/26 09:37:48;;;;;;;;;5.00;5.00;20.30;47.90;;;;;;4702445;30;11700;-62
2022/04/26 09:40:14;;;;;;;;;5.00;5.00;20.60;47.30;;;;;;4702373;30;11809;-62
2022/04/26 09:42:39;;;;;;;;;4.00;4.00;20.70;46.10;;;;;;4702318;30;11680;-62
2022/04/26 09:45:10;;;;;;;;;5.00;5.00;21.30;45.40;;;;;;4702210;30;8870;-61
2022/04/26 09:47:41;;;;;;;;;4.67;4.67;21.60;48.70;;;;;;4701699;30;9502;-61
2022/04/26 09:50:09;;;;;;;;;6.00;6.00;22.00;44.40;;;;;;4702192;30;11701;-61
2022/04/26 09:52:36;;;;;;;;;4.00;4.00;22.00;43.60;;;;;;4702411;30;12511;-61
2022/04/26 09:55:03;;;;;;;;;5.00;5.00;21.90;44.50;;;;;;4701859;30;11725;-61
2022/04/26 09:57:32;;;;;;;;;4.00;4.00;22.50;43.80;;;;;;4702042;30;12443;-61
2022/04/26 10:00:03;;;;;;;;;5.00;5.00;22.10;43.90;;;;;;4702290;30;11847;-61
2022/04/26 10:02:32;;;;;;;;;5.00;5.00;22.20;43.10;;;;;;4702148;30;11729;-61
2022/04/26 10:05:06;;;;;;;;;4.00;4.00;22.00;43.70;;;;;;4701979;30;11703;-61
2022/04/26 10:07:37;;;;;;;;;5.25;5.25;21.90;42.90;;;;;;4701863;30;11795;-61
2022/04/26 10:10:06;;;;;;;;;4.75;4.75;22.10;42.90;;;;;;4715357;30;11767;-61
2022/04/26 10:12:33;;;;;;;;;6.50;5.25;22.50;41.10;;;;;;4701689;30;11753;-61
2022/04/26 10:15:04;;;;;;;;;4.75;4.75;23.30;43.40;;;;;;4701672;30;11690;-61
2022/04/26 10:17:32;;;;;;;;;5.25;5.25;22.70;42.50;;;;;;4701872;30;11740;-61
2022/04/26 10:20:02;;;;;;;;;4.00;3.25;22.40;42.50;;;;;;4701539;30;11693;-61
2022/04/26 10:22:57;;;;;;;;;3.75;3.75;22.40;42.50;;;;;;4701623;30;11723;-61
2022/04/26 10:25:25;;;;;;;;;5.00;5.00;22.70;43.20;;;;;;4701699;30;11700;-61
2022/04/26 10:28:26;;;;;;;;;3.50;3.50;23.20;41.90;;;;;;4701667;30;11751;-61
2022/04/26 10:30:56;;;;;;;;;5.00;5.00;23.50;41.60;;;;;;4701610;30;12353;-61
2022/04/26 10:33:34;;;;;;;;;5.25;5.25;23.10;44.50;;;;;;4701367;30;11682;-61
2022/04/26 10:36:26;;;;;;;;;4.75;4.75;23.10;43.20;;;;;;4701280;30;11682;-61
2022/04/26 10:39:12;;;;;;;;;3.75;3.75;22.90;41.60;;;;;;4699572;30;11696;-61
2022/04/26 10:41:46;;;;;;;;;5.00;5.00;22.80;41.90;;;;;;4701323;30;11794;-61
2022/04/26 10:44:17;;;;;;;;;5.00;4.00;23.00;42.90;;;;;;4701565;30;11806;-61
2022/04/26 10:46:55;;;;;;;;;3.00;3.00;23.20;41.60;;;;;;4701145;30;11718;-61
2022/04/26 10:49:24;;;;;;;;;5.00;5.00;23.00;41.50;;;;;;4701201;30;11804;-61
2022/04/26 10:51:55;;;;;;;;;5.00;5.00;22.90;41.50;;;;;;4701008;30;11727;-61
2022/04/26 10:54:49;;;;;;;;;6.00;6.00;23.10;42.20;;;;;;4701103;30;11781;-62
2022/04/26 10:57:20;;;;;;;;;5.00;5.00;23.30;41.80;;;;;;4701393;30;11677;-62
2022/04/26 10:59:48;;;;;;;;;4.00;4.00;23.00;41.00;;;;;;4700926;30;11693;-61
2022/04/26 11:02:16;;;;;;;;;5.50;5.50;23.60;40.80;;;;;;4701037;30;11756;-61
2022/04/26 11:04:43;;;;;;;;;3.25;3.25;24.20;40.10;;;;;;4701218;30;11856;-61
2022/04/26 11:07:16;;;;;;;;;5.25;5.25;24.70;38.50;;;;;;4700894;30;11715;-61
2022/04/26 11:09:49;;;;;;;;;4.00;4.00;25.40;36.80;;;;;;4700857;30;11716;-62
2022/04/26 11:12:19;;;;;;;;;5.25;5.00;24.90;36.60;;;;;;4700921;30;11728;-61
2022/04/26 11:14:49;;;;;;;;;3.50;3.50;24.40;36.70;;;;;;4700878;30;11678;-61
2022/04/26 11:17:17;;;;;;;;;4.00;4.00;24.40;39.50;;;;;;4700856;30;11775;-61
2022/04/26 11:19:57;;;;;;;;;4.25;4.25;24.20;37.40;;;;;;4701101;30;12347;-61
2022/04/26 11:22:24;;;;;;;;;3.75;3.75;24.20;36.60;;;;;;4700876;30;11672;-61
2022/04/26 11:30:36;;;;;;;;;4.75;4.75;24.00;38.80;;;;;;4700894;30;11659;-62
2022/04/26 11:33:11;;;;;;;;;4.00;4.00;23.80;38.60;;;;;;4700745;30;11741;-62
2022/04/26 11:35:39;;;;;;;;;3.50;3.50;23.70;38.50;;;;;;4701007;30;11687;-62
2022/04/26 11:38:08;;;;;;;;;5.00;5.00;23.60;39.10;;;;;;4700636;30;11731;-61
2022/04/26 11:41:00;;;;;;;;;4.00;4.00;23.60;40.80;;;;;;4714151;30;11706;-62
2022/04/26 11:43:31;;;;;;;;;5.00;5.00;23.80;39.70;;;;;;4700759;30;11709;-62
2022/04/26 11:45:58;;;;;;;;;4.00;4.00;24.60;36.60;;;;;;4700356;30;11724;-61
2022/04/26 11:48:25;;;;;;;;;4.25;4.25;24.50;37.30;;;;;;4700593;30;11696;-61
2022/04/26 11:50:54;;;;;;;;;5.00;5.00;24.40;37.00;;;;;;4700668;30;11689;-62
2022/04/26 11:53:25;;;;;;;;;5.25;5.25;24.20;38.20;;;;;;4700771;30;11685;-62
2022/04/26 11:55:58;;;;;;;;;5.25;5.25;24.70;37.80;;;;;;4699844;30;11735;-61
2022/04/26 11:58:27;;;;;;;;;4.00;4.00;25.20;36.90;;;;;;4700477;30;11792;-61
2022/04/26 12:00:56;;;;;;;;;5.00;5.00;25.10;36.00;;;;;;4698555;30;11678;-60
2022/04/26 12:03:28;;;;;;;;;6.25;5.00;26.00;35.60;;;;;;4698516;30;11684;-63
2022/04/26 12:05:58;;;;;;;;;6.00;5.00;26.40;33.30;;;;;;4700502;30;11754;-63
2022/04/26 12:08:25;;;;;;;;;5.00;4.00;26.50;32.90;;;;;;4700786;30;11675;-62
2022/04/26 12:10:51;;;;;;;;;7.00;7.00;26.20;33.70;;;;;;4699636;30;11698;-62
2022/04/26 12:13:30;;;;;;;;;6.00;4.50;26.40;35.00;;;;;;4701676;30;11694;-62
2022/04/26 12:15:57;;;;;;;;;5.50;5.50;26.70;34.00;;;;;;4702333;30;8813;-62
2022/04/26 12:18:23;;;;;;;;;4.00;4.00;26.00;33.80;;;;;;4702419;30;12327;-63
2022/04/26 12:21:01;;;;;;;;;4.00;4.00;26.00;35.70;;;;;;4714138;30;11834;-64
2022/04/26 12:23:28;;;;;;;;;4.25;4.00;26.50;34.70;;;;;;4692851;30;8849;-62
2022/04/26 12:26:01;;;;;;;;;3.00;3.00;26.30;32.60;;;;;;4700672;30;11861;-67
2022/04/26 12:28:27;;;;;;;;;4.25;4.25;25.50;33.30;;;;;;4702814;30;11675;-64
2022/04/26 12:30:53;;;;;;;;;5.00;5.00;24.80;35.20;;;;;;4716668;30;11724;-65
2022/04/26 12:33:26;;;;;;;;;4.00;4.00;24.80;35.70;;;;;;4703312;30;8833;-68
2022/04/26 12:36:00;;;;;;;;;4.25;4.25;25.00;34.90;;;;;;4703513;30;12332;-68
2022/04/26 12:38:26;;;;;;;;;7.00;6.00;25.60;36.60;;;;;;4703322;30;11725;-68
2022/04/26 12:41:05;;;;;;;;;3.00;3.00;25.60;36.50;;;;;;4703298;30;11693;-69
2022/04/26 12:43:32;;;;;;;;;5.00;5.00;26.00;36.20;;;;;;4703749;30;8859;-70
2022/04/26 12:46:03;;;;;;;;;4.00;4.00;25.60;35.00;;;;;;4703324;30;11687;-69
2022/04/26 12:51:17;;;;;;;;;5.00;5.00;26.10;35.80;;;;;;4703155;30;11722;-70
2022/04/26 12:53:45;;;;;;;;;5.50;5.50;26.40;33.60;;;;;;4703239;30;11726;-70
2022/04/26 12:56:12;;;;;;;;;5.25;5.25;26.50;32.50;;;;;;4702780;30;11762;-71
2022/04/26 12:58:39;;;;;;;;;6.75;6.75;26.70;30.90;;;;;;4716455;30;12389;-69
2022/04/26 13:01:06;;;;;;;;;5.00;5.00;26.70;33.70;;;;;;4703233;30;11802;-70
2022/04/26 13:03:33;;;;;;;;;3.00;3.00;27.50;32.40;;;;;;4703244;30;11693;-70
2022/04/26 13:06:10;;;;;;;;;3.00;3.00;27.80;32.20;;;;;;4703241;30;12336;-70
2022/04/26 13:08:38;;;;;;;;;3.00;3.00;28.40;33.60;;;;;;4703195;30;11805;-70
2022/04/26 13:11:04;;;;;;;;;4.75;4.75;28.20;30.70;;;;;;4702881;30;11664;-71
2022/04/26 13:13:31;;;;;;;;;4.25;4.25;27.80;30.00;;;;;;4701598;30;11683;-71
2022/04/26 13:15:56;;;;;;;;;4.00;4.00;28.10;32.30;;;;;;4702944;30;11699;-70
2022/04/26 13:18:22;;;;;;;;;4.75;4.75;28.70;32.60;;;;;;4702706;30;12295;-70
2022/04/26 13:20:48;;;;;;;;;2.00;2.00;30.00;30.30;;;;;;4702779;30;8845;-71
2022/04/26 13:23:15;;;;;;;;;3.75;3.75;37.50;24.60;;;;;;4702577;30;8829;-71
2022/04/26 13:25:43;;;;;;;;;2.00;2.00;41.40;22.20;;;;;;4702780;30;11823;-71
2022/04/26 13:28:09;;;;;;;;;2.00;2.00;44.00;20.50;;;;;;4702527;30;11757;-72
2022/04/26 13:30:36;;;;;;;;;3.75;3.75;44.10;19.60;;;;;;4702831;30;12332;-71
2022/04/26 13:33:04;;;;;;;;;4.00;4.00;39.10;19.60;;;;;;4702503;30;11709;-70
2022/04/26 13:35:30;;;;;;;;;4.25;4.25;35.00;23.60;;;;;;4715849;30;11718;-71
2022/04/26 13:37:58;;;;;;;;;4.00;4.00;33.30;25.00;;;;;;4702371;30;11711;-71
2022/04/26 13:40:25;;;;;;;;;4.00;4.00;32.30;24.50;;;;;;4702460;30;8817;-70
2022/04/26 13:42:56;;;;;;;;;4.00;4.00;30.70;25.70;;;;;;4702844;30;11698;-73
2022/04/26 13:45:22;;;;;;;;;4.75;4.75;28.70;28.30;;;;;;4702505;30;11723;-70
2022/04/26 13:47:48;;;;;;;;;2.75;2.75;28.10;28.60;;;;;;4702156;30;11770;-70
2022/04/26 13:50:14;;;;;;;;;3.00;3.00;27.50;29.30;;;;;;4702319;30;8974;-69
2022/04/26 13:52:42;;;;;;;;;4.25;4.25;27.70;30.20;;;;;;4699911;30;8877;-69
2022/04/26 13:55:08;;;;;;;;;4.00;4.00;28.20;29.40;;;;;;4697549;30;8865;-71
2022/04/26 13:57:33;;;;;;;;;2.50;2.50;28.40;29.50;;;;;;4715132;30;11669;-69
2022/04/26 14:00:02;;;;;;;;;3.75;3.75;28.50;29.50;;;;;;4701655;30;11703;-69
2022/04/26 14:02:29;;;;;;;;;4.00;4.00;29.10;28.70;;;;;;4701105;30;8849;-70
2022/04/26 14:04:55;;;;;;;;;5.00;5.00;28.80;29.30;;;;;;4701737;30;11765;-69
2022/04/26 14:07:20;;;;;;;;;5.75;5.75;28.80;28.60;;;;;;4701577;30;11764;-69
2022/04/26 14:09:46;;;;;;;;;6.50;6.50;28.70;27.40;;;;;;4701547;30;8818;-70
2022/04/26 14:12:14;;;;;;;;;4.25;4.25;27.90;30.60;;;;;;4701471;30;8857;-69
2022/04/26 14:22:54;;;;;;;;;3.00;3.00;26.70;30.60;;;;;;4701067;30;11670;-69
2022/04/26 14:25:20;;;;;;;;;3.00;3.00;26.60;28.60;;;;;;4701212;30;11697;-69
2022/04/26 14:27:49;;;;;;;;;4.50;4.50;26.40;29.20;;;;;;4701190;30;11686;-70
2022/04/26 14:30:15;;;;;;;;;6.00;6.00;26.10;31.50;;;;;;4701376;30;11734;-70
2022/04/26 14:32:41;;;;;;;;;5.00;5.00;26.00;31.40;;;;;;4701135;30;11741;-69
2022/04/26 14:35:07;;;;;;;;;4.25;4.25;25.60;32.20;;;;;;4700981;30;11719;-69
2022/04/26 14:37:33;;;;;;;;;5.00;5.00;25.30;33.40;;;;;;4701268;30;8821;-70
2022/04/26 14:40:00;;;;;;;;;5.00;5.00;25.70;32.50;;;;;;4700845;30;11686;-70
2022/04/26 14:42:28;;;;;;;;;8.25;8.25;25.70;30.80;;;;;;4700927;30;12450;-70
2022/04/26 14:44:54;;;;;;;;;7.00;7.00;25.50;31.70;;;;;;4700927;30;11789;-71
2022/04/26 14:47:20;;;;;;;;;5.25;5.25;25.80;31.00;;;;;;4701166;30;11851;-70
2022/04/26 14:49:46;;;;;;;;;4.00;4.00;25.40;31.40;;;;;;4700667;30;11793;-70
2022/04/26 14:52:21;;;;;;;;;5.00;5.00;25.50;31.20;;;;;;4700255;30;8869;-70
2022/04/26 14:54:47;;;;;;;;;5.00;5.00;25.30;31.40;;;;;;4700368;30;11681;-70
2022/04/26 14:57:15;;;;;;;;;5.75;5.75;25.40;30.80;;;;;;4699975;30;11680;-70
2022/04/26 14:59:46;;;;;;;;;5.25;5.25;25.10;30.20;;;;;;4700708;30;11655;-70
2022/04/26 15:02:13;;;;;;;;;5.00;5.00;24.90;31.50;;;;;;4700722;30;11646;-70
2022/04/26 15:04:40;;;;;;;;;6.50;6.50;24.60;31.10;;;;;;4699672;30;11706;-71
2022/04/26 15:07:05;;;;;;;;;5.75;5.75;25.20;30.10;;;;;;4700180;30;11692;-70
2022/04/26 15:09:43;;;;;;;;;5.25;5.25;25.70;29.90;;;;;;4714022;30;11682;-70
2022/04/26 15:17:48;;;;;;;;;6.00;6.00;25.20;30.60;;;;;;4700212;30;11685;-65
2022/04/26 15:20:16;;;;;;;;;6.00;6.00;25.40;30.70;;;;;;4700642;30;11665;-66
2022/04/26 15:22:42;;;;;;;;;8.00;8.00;26.00;30.10;;;;;;4698503;30;11674;-67
2022/04/26 15:25:11;;;;;;;;;6.75;6.75;26.00;30.30;;;;;;4700343;30;11721;-66
2022/04/26 15:27:38;;;;;;;;;8.50;8.50;25.40;30.80;;;;;;4700193;30;8814;-67
2022/04/26 15:30:07;;;;;;;;;8.00;8.00;24.90;31.70;;;;;;4700429;30;11764;-66
2022/04/26 15:32:33;;;;;;;;;4.00;4.00;24.90;33.90;;;;;;4699193;30;11744;-67
2022/04/26 15:34:59;;;;;;;;;13.00;13.00;24.80;33.30;;;;;;4697556;30;12381;-66
2022/04/26 15:37:25;;;;;;;;;6.00;6.00;25.00;32.70;;;;;;4698785;30;8879;-66
2022/04/26 15:39:54;;;;;;;;;5.00;5.00;24.70;34.00;;;;;;4699531;30;8905;-66
2022/04/26 15:42:21;;;;;;;;;5.25;5.25;25.20;33.40;;;;;;4699329;30;8936;-67
2022/04/26 15:44:48;;;;;;;;;6.00;6.00;24.80;33.50;;;;;;4699704;30;11735;-69
2022/04/26 15:47:14;;;;;;;;;8.00;8.00;24.30;34.10;;;;;;4702124;30;11685;-68
2022/04/26 15:49:41;;;;;;;;;6.00;6.00;24.20;32.90;;;;;;4702366;30;11736;-69
2022/04/26 15:52:09;;;;;;;;;6.00;6.00;24.30;32.60;;;;;;4699544;30;11698;-68
2022/04/26 15:54:36;;;;;;;;;6.00;6.00;24.60;33.80;;;;;;4700805;30;11703;-69
2022/04/26 15:57:02;;;;;;;;;6.00;6.00;25.00;32.70;;;;;;4701148;30;11728;-68
2022/04/26 15:59:28;;;;;;;;;8.00;8.00;25.10;33.10;;;;;;4702904;30;11679;-66
2022/04/26 16:01:54;;;;;;;;;6.00;6.00;25.30;31.90;;;;;;4702559;30;11777;-65
2022/04/26 16:04:20;;;;;;;;;5.25;5.25;25.60;31.40;;;;;;4702889;30;8848;-68
2022/04/26 16:06:45;;;;;;;;;7.00;7.00;25.40;31.20;;;;;;4700424;30;9773;-68
2022/04/26 16:20:29;;;;;;;;;6.75;6.75;25.10;32.50;;;;;;4702774;30;11690;-62
2022/04/26 16:23:03;;;;;;;;;5.75;5.75;24.60;33.20;;;;;;4686570;30;11769;-65
2022/04/26 16:25:29;;;;;;;;;7.25;7.25;25.30;31.70;;;;;;4686440;30;12383;-65
2022/04/26 16:27:55;;;;;;;;;4.50;4.50;25.20;32.00;;;;;;4693925;30;11718;-64
2022/04/26 16:30:21;;;;;;;;;5.75;5.75;24.80;30.70;;;;;;4703344;30;11748;-65
2022/04/26 16:32:47;;;;;;;;;6.00;6.00;25.10;31.40;;;;;;4703529;30;11829;-63
2022/04/26 16:35:13;;;;;;;;;7.00;7.00;25.40;33.40;;;;;;4703697;30;8810;-64
2022/04/26 16:37:41;;;;;;;;;5.00;5.00;25.60;33.80;;;;;;4702858;30;8870;-63
2022/04/26 16:40:09;;;;;;;;;8.00;8.00;25.50;32.70;;;;;;4702836;30;8858;-65
2022/04/26 16:42:36;;;;;;;;;8.25;8.25;25.10;32.70;;;;;;4703217;30;11692;-63
2022/04/26 16:45:01;;;;;;;;;11.33;11.33;25.30;32.10;;;;;;4702019;30;11751;-61
2022/04/26 16:47:27;;;;;;;;;8.00;8.00;25.10;32.20;;;;;;4702639;30;11750;-65
2022/04/26 16:49:54;;;;;;;;;6.50;6.50;25.50;31.50;;;;;;4703096;30;8830;-64
2022/04/26 16:52:20;;;;;;;;;7.00;7.00;25.30;30.80;;;;;;4703091;30;8853;-63
2022/04/26 16:54:46;;;;;;;;;7.00;7.00;25.70;31.20;;;;;;4702855;30;11698;-65
2022/04/26 16:57:11;;;;;;;;;10.25;10.25;25.70;32.30;;;;;;4702694;30;9457;-64
2022/04/26 16:59:37;;;;;;;;;7.00;7.00;25.80;32.60;;;;;;4702411;30;8848;-64
2022/04/26 17:02:03;;;;;;;;;8.50;8.50;25.80;31.60;;;;;;4703283;30;8833;-66
2022/04/26 17:04:30;;;;;;;;;9.00;9.00;25.50;31.80;;;;;;4703228;30;9528;-64
2022/04/26 17:06:58;;;;;;;;;8.50;8.50;25.30;31.50;;;;;;4703153;30;11901;-65
2022/04/26 17:09:24;;;;;;;;;10.00;10.00;25.30;32.50;;;;;;4703130;30;12358;-64
2022/04/26 17:11:51;;;;;;;;;9.00;9.00;25.10;33.10;;;;;;4702483;30;11762;-65